sensor_id;sensor_type;location;lat;lon;timestamp;temperature;humidity
3069;DHT22;1545;51.728;8.796;2022-07-23T00:00:04;16.70;98.80
3069;DHT22;1545;51.728;8.796;2022-07-23T00:02:30;16.70;98.80
3069;DHT22;1545;51.728;8.796;2022-07-23T00:04:55;16.60;98.80
3069;DHT22;1545;51.728;8.796;2022-07-23T00:07:21;16.60;98.80
3069;DHT22;1545;51.728;8.796;2022-07-23T00:09:46;16.60;98.80
3069;DHT22;1545;51.728;8.796;2022-07-23T00:12:12;16.50;98.80
3069;DHT22;1545;51.728;8.796;2022-07-23T00:14:37;16.50;98.80
3069;DHT22;1545;51.728;8.796;2022-07-23T00:17:03;16.50;98.80
3069;DHT22;1545;51.728;8.796;2022-07-23T00:19:28;16.40;98.80
3069;DHT22;1545;51.728;8.796;2022-07-23T00:21:54;16.40;98.80
3069;DHT22;1545;51.728;8.796;2022-07-23T00:24:20;16.40;98.80
3069;DHT22;1545;51.728;8.796;2022-07-23T00:26:46;16.40;98.80
3069;DHT22;1545;51.728;8.796;2022-07-23T00:29:11;16.50;98.80
3069;DHT22;1545;51.728;8.796;2022-07-23T00:31:37;16.50;98.80
3069;DHT22;1545;51.728;8.796;2022-07-23T00:34:02;16.50;98.80
3069;DHT22;1545;51.728;8.796;2022-07-23T00:36:28;16.50;98.80
3069;DHT22;1545;51.728;8.796;2022-07-23T00:38:54;16.50;98.80
3069;DHT22;1545;51.728;8.796;2022-07-23T00:41:19;16.50;98.80
3069;DHT22;1545;51.728;8.796;2022-07-23T00:43:45;16.50;98.80
3069;DHT22;1545;51.728;8.796;2022-07-23T00:46:10;16.50;98.80
3069;DHT22;1545;51.728;8.796;2022-07-23T00:48:36;16.50;98.80
3069;DHT22;1545;51.728;8.796;2022-07-23T00:51:02;16.40;98.80
3069;DHT22;1545;51.728;8.796;2022-07-23T00:53:27;16.50;98.80
3069;DHT22;1545;51.728;8.796;2022-07-23T00:55:54;16.50;98.80
3069;DHT22;1545;51.728;8.796;2022-07-23T00:58:19;16.40;98.80
3069;DHT22;1545;51.728;8.796;2022-07-23T01:00:45;16.40;98.80
3069;DHT22;1545;51.728;8.796;2022-07-23T01:03:11;16.40;98.80
3069;DHT22;1545;51.728;8.796;2022-07-23T01:05:37;16.40;98.80
3069;DHT22;1545;51.728;8.796;2022-07-23T01:08:05;16.50;98.80
3069;DHT22;1545;51.728;8.796;2022-07-23T01:10:30;16.50;98.80
3069;DHT22;1545;51.728;8.796;2022-07-23T01:13:06;16.50;98.80
3069;DHT22;1545;51.728;8.796;2022-07-23T01:15:34;16.60;98.80
3069;DHT22;1545;51.728;8.796;2022-07-23T01:18:00;16.60;98.80
3069;DHT22;1545;51.728;8.796;2022-07-23T01:20:26;16.60;98.80
3069;DHT22;1545;51.728;8.796;2022-07-23T01:22:52;16.60;98.80
3069;DHT22;1545;51.728;8.796;2022-07-23T01:25:18;16.70;98.80
3069;DHT22;1545;51.728;8.796;2022-07-23T01:27:43;16.70;98.80
3069;DHT22;1545;51.728;8.796;2022-07-23T01:30:09;16.70;98.80
3069;DHT22;1545;51.728;8.796;2022-07-23T01:32:35;16.70;98.80
3069;DHT22;1545;51.728;8.796;2022-07-23T01:35:00;16.70;98.80
3069;DHT22;1545;51.728;8.796;2022-07-23T01:37:26;16.70;98.80
3069;DHT22;1545;51.728;8.796;2022-07-23T01:39:51;16.70;98.80
3069;DHT22;1545;51.728;8.796;2022-07-23T01:42:17;16.70;98.80
3069;DHT22;1545;51.728;8.796;2022-07-23T01:44:42;16.60;98.80
3069;DHT22;1545;51.728;8.796;2022-07-23T01:47:08;16.60;98.80
3069;DHT22;1545;51.728;8.796;2022-07-23T01:49:33;16.50;98.80
3069;DHT22;1545;51.728;8.796;2022-07-23T01:51:59;16.50;98.80
3069;DHT22;1545;51.728;8.796;2022-07-23T01:54:25;16.40;98.80
3069;DHT22;1545;51.728;8.796;2022-07-23T01:56:51;16.30;98.80
3069;DHT22;1545;51.728;8.796;2022-07-23T01:59:16;16.30;98.80
3069;DHT22;1545;51.728;8.796;2022-07-23T02:01:42;16.20;98.80
3069;DHT22;1545;51.728;8.796;2022-07-23T02:04:07;16.10;98.80
3069;DHT22;1545;51.728;8.796;2022-07-23T02:06:33;16.10;98.80
3069;DHT22;1545;51.728;8.796;2022-07-23T02:08:58;16.00;98.80
3069;DHT22;1545;51.728;8.796;2022-07-23T02:11:24;16.00;98.80
3069;DHT22;1545;51.728;8.796;2022-07-23T02:13:49;16.10;98.80
3069;DHT22;1545;51.728;8.796;2022-07-23T02:16:15;16.00;98.80
3069;DHT22;1545;51.728;8.796;2022-07-23T02:18:40;15.80;98.80
3069;DHT22;1545;51.728;8.796;2022-07-23T02:21:06;15.70;98.80
3069;DHT22;1545;51.728;8.796;2022-07-23T02:23:34;15.70;98.80
3069;DHT22;1545;51.728;8.796;2022-07-23T02:26:00;15.70;98.80
3069;DHT22;1545;51.728;8.796;2022-07-23T02:28:28;15.70;98.80
3069;DHT22;1545;51.728;8.796;2022-07-23T02:30:58;15.70;98.80
3069;DHT22;1545;51.728;8.796;2022-07-23T02:33:24;15.70;98.80
3069;DHT22;1545;51.728;8.796;2022-07-23T02:35:55;15.70;98.80
3069;DHT22;1545;51.728;8.796;2022-07-23T02:38:23;15.80;98.80
3069;DHT22;1545;51.728;8.796;2022-07-23T02:40:48;15.80;98.80
3069;DHT22;1545;51.728;8.796;2022-07-23T02:43:14;15.80;98.80
3069;DHT22;1545;51.728;8.796;2022-07-23T02:45:44;15.80;98.80
3069;DHT22;1545;51.728;8.796;2022-07-23T02:48:12;15.70;98.80
3069;DHT22;1545;51.728;8.796;2022-07-23T02:50:40;15.70;98.80
3069;DHT22;1545;51.728;8.796;2022-07-23T02:53:15;15.60;98.80
3069;DHT22;1545;51.728;8.796;2022-07-23T02:55:46;15.60;98.80
3069;DHT22;1545;51.728;8.796;2022-07-23T02:58:12;15.60;98.80
3069;DHT22;1545;51.728;8.796;2022-07-23T03:00:37;15.50;98.80
3069;DHT22;1545;51.728;8.796;2022-07-23T03:03:03;15.50;98.80
3069;DHT22;1545;51.728;8.796;2022-07-23T03:05:28;15.60;98.80
3069;DHT22;1545;51.728;8.796;2022-07-23T03:07:56;15.50;98.80
3069;DHT22;1545;51.728;8.796;2022-07-23T03:10:24;15.50;98.80
3069;DHT22;1545;51.728;8.796;2022-07-23T03:12:55;15.40;98.80
3069;DHT22;1545;51.728;8.796;2022-07-23T03:15:21;15.50;98.80
3069;DHT22;1545;51.728;8.796;2022-07-23T03:17:49;15.50;98.80
3069;DHT22;1545;51.728;8.796;2022-07-23T03:20:14;15.50;98.80
3069;DHT22;1545;51.728;8.796;2022-07-23T03:22:40;15.50;98.80
3069;DHT22;1545;51.728;8.796;2022-07-23T03:25:06;15.50;98.80
3069;DHT22;1545;51.728;8.796;2022-07-23T03:27:32;15.40;98.80
3069;DHT22;1545;51.728;8.796;2022-07-23T03:29:58;15.40;98.80
3069;DHT22;1545;51.728;8.796;2022-07-23T03:32:27;15.50;98.80
3069;DHT22;1545;51.728;8.796;2022-07-23T03:34:56;15.50;98.80
3069;DHT22;1545;51.728;8.796;2022-07-23T03:37:22;15.40;98.80
3069;DHT22;1545;51.728;8.796;2022-07-23T03:39:48;15.40;98.80
3069;DHT22;1545;51.728;8.796;2022-07-23T03:42:15;15.40;98.80
3069;DHT22;1545;51.728;8.796;2022-07-23T03:44:41;15.40;98.80
3069;DHT22;1545;51.728;8.796;2022-07-23T03:47:07;15.40;98.80
3069;DHT22;1545;51.728;8.796;2022-07-23T03:49:33;15.30;98.80
3069;DHT22;1545;51.728;8.796;2022-07-23T03:51:59;15.20;98.80
3069;DHT22;1545;51.728;8.796;2022-07-23T03:54:24;15.20;98.80
3069;DHT22;1545;51.728;8.796;2022-07-23T03:56:50;15.10;98.80
3069;DHT22;1545;51.728;8.796;2022-07-23T03:59:18;15.10;98.80
3069;DHT22;1545;51.728;8.796;2022-07-23T04:01:43;15.10;98.80
3069;DHT22;1545;51.728;8.796;2022-07-23T04:04:09;15.10;98.80
3069;DHT22;1545;51.728;8.796;2022-07-23T04:06:35;15.10;98.80
3069;DHT22;1545;51.728;8.796;2022-07-23T04:09:01;15.10;98.80
3069;DHT22;1545;51.728;8.796;2022-07-23T04:11:27;15.10;98.80
3069;DHT22;1545;51.728;8.796;2022-07-23T04:13:52;15.10;98.80
3069;DHT22;1545;51.728;8.796;2022-07-23T04:16:18;15.10;98.80
3069;DHT22;1545;51.728;8.796;2022-07-23T04:18:43;15.10;98.80
3069;DHT22;1545;51.728;8.796;2022-07-23T04:21:09;15.10;98.80
3069;DHT22;1545;51.728;8.796;2022-07-23T04:23:34;15.00;98.80
3069;DHT22;1545;51.728;8.796;2022-07-23T04:26:00;15.00;98.80
3069;DHT22;1545;51.728;8.796;2022-07-23T04:28:26;15.00;98.80
3069;DHT22;1545;51.728;8.796;2022-07-23T04:30:51;14.90;98.80
3069;DHT22;1545;51.728;8.796;2022-07-23T04:33:17;15.00;98.80
3069;DHT22;1545;51.728;8.796;2022-07-23T04:35:42;15.40;98.80
3069;DHT22;1545;51.728;8.796;2022-07-23T04:38:08;15.40;98.80
3069;DHT22;1545;51.728;8.796;2022-07-23T04:40:34;15.40;98.80
3069;DHT22;1545;51.728;8.796;2022-07-23T04:42:59;15.70;98.80
3069;DHT22;1545;51.728;8.796;2022-07-23T04:45:25;15.90;98.80
3069;DHT22;1545;51.728;8.796;2022-07-23T04:47:50;16.30;98.80
3069;DHT22;1545;51.728;8.796;2022-07-23T04:50:16;17.40;98.80
3069;DHT22;1545;51.728;8.796;2022-07-23T04:52:49;18.60;98.80
3069;DHT22;1545;51.728;8.796;2022-07-23T04:55:14;19.50;98.80
3069;DHT22;1545;51.728;8.796;2022-07-23T04:57:40;20.00;98.40
3069;DHT22;1545;51.728;8.796;2022-07-23T05:00:07;20.70;95.80
3069;DHT22;1545;51.728;8.796;2022-07-23T05:02:33;21.30;91.70
3069;DHT22;1545;51.728;8.796;2022-07-23T05:04:58;22.00;87.20
3069;DHT22;1545;51.728;8.796;2022-07-23T05:07:24;22.40;83.90
3069;DHT22;1545;51.728;8.796;2022-07-23T05:09:49;22.70;81.80
3069;DHT22;1545;51.728;8.796;2022-07-23T05:12:15;23.20;80.10
3069;DHT22;1545;51.728;8.796;2022-07-23T05:14:40;23.50;77.70
3069;DHT22;1545;51.728;8.796;2022-07-23T05:17:07;23.50;76.40
3069;DHT22;1545;51.728;8.796;2022-07-23T05:19:33;23.30;77.20
3069;DHT22;1545;51.728;8.796;2022-07-23T05:21:59;23.10;77.40
3069;DHT22;1545;51.728;8.796;2022-07-23T05:24:24;23.40;76.90
3069;DHT22;1545;51.728;8.796;2022-07-23T05:26:50;23.70;77.20
3069;DHT22;1545;51.728;8.796;2022-07-23T05:29:16;24.30;76.30
3069;DHT22;1545;51.728;8.796;2022-07-23T05:31:41;24.60;74.50
3069;DHT22;1545;51.728;8.796;2022-07-23T05:34:07;24.80;74.40
3069;DHT22;1545;51.728;8.796;2022-07-23T05:36:34;25.10;73.10
3069;DHT22;1545;51.728;8.796;2022-07-23T05:39:00;25.50;72.90
3069;DHT22;1545;51.728;8.796;2022-07-23T05:41:26;25.80;70.50
3069;DHT22;1545;51.728;8.796;2022-07-23T05:43:51;25.90;71.00
3069;DHT22;1545;51.728;8.796;2022-07-23T05:46:17;26.00;71.30
3069;DHT22;1545;51.728;8.796;2022-07-23T05:48:42;26.30;69.70
3069;DHT22;1545;51.728;8.796;2022-07-23T05:51:08;26.20;69.90
3069;DHT22;1545;51.728;8.796;2022-07-23T05:53:35;26.20;69.30
3069;DHT22;1545;51.728;8.796;2022-07-23T05:56:01;26.30;69.70
3069;DHT22;1545;51.728;8.796;2022-07-23T05:58:27;26.30;69.50
3069;DHT22;1545;51.728;8.796;2022-07-23T06:00:53;26.60;68.40
3069;DHT22;1545;51.728;8.796;2022-07-23T06:03:18;27.10;67.30
3069;DHT22;1545;51.728;8.796;2022-07-23T06:05:45;26.40;68.80
3069;DHT22;1545;51.728;8.796;2022-07-23T06:08:10;25.40;71.30
3069;DHT22;1545;51.728;8.796;2022-07-23T06:10:36;25.50;71.20
3069;DHT22;1545;51.728;8.796;2022-07-23T06:13:01;25.80;70.80
3069;DHT22;1545;51.728;8.796;2022-07-23T06:15:27;25.90;70.20
3069;DHT22;1545;51.728;8.796;2022-07-23T06:17:53;25.80;70.80
3069;DHT22;1545;51.728;8.796;2022-07-23T06:20:18;26.00;69.90
3069;DHT22;1545;51.728;8.796;2022-07-23T06:22:44;25.40;70.20
3069;DHT22;1545;51.728;8.796;2022-07-23T06:25:09;25.20;71.60
3069;DHT22;1545;51.728;8.796;2022-07-23T06:27:35;25.30;70.90
3069;DHT22;1545;51.728;8.796;2022-07-23T06:30:00;25.70;70.20
3069;DHT22;1545;51.728;8.796;2022-07-23T06:32:26;26.20;68.20
3069;DHT22;1545;51.728;8.796;2022-07-23T06:34:51;26.00;68.10
3069;DHT22;1545;51.728;8.796;2022-07-23T06:37:17;26.00;69.10
3069;DHT22;1545;51.728;8.796;2022-07-23T06:39:42;25.70;69.50
3069;DHT22;1545;51.728;8.796;2022-07-23T06:42:08;25.90;69.50
3069;DHT22;1545;51.728;8.796;2022-07-23T06:44:35;26.00;67.80
3069;DHT22;1545;51.728;8.796;2022-07-23T06:47:01;25.50;67.10
3069;DHT22;1545;51.728;8.796;2022-07-23T06:49:26;25.90;68.10
3069;DHT22;1545;51.728;8.796;2022-07-23T06:51:52;26.60;67.00
3069;DHT22;1545;51.728;8.796;2022-07-23T06:54:17;27.10;65.40
3069;DHT22;1545;51.728;8.796;2022-07-23T06:56:43;27.00;64.20
3069;DHT22;1545;51.728;8.796;2022-07-23T06:59:08;26.00;65.90
3069;DHT22;1545;51.728;8.796;2022-07-23T07:01:34;25.40;68.90
3069;DHT22;1545;51.728;8.796;2022-07-23T07:04:00;24.50;69.40
3069;DHT22;1545;51.728;8.796;2022-07-23T07:06:25;24.20;72.40
3069;DHT22;1545;51.728;8.796;2022-07-23T07:08:51;24.20;72.10
3069;DHT22;1545;51.728;8.796;2022-07-23T07:11:16;24.60;71.50
3069;DHT22;1545;51.728;8.796;2022-07-23T07:13:42;25.40;69.10
3069;DHT22;1545;51.728;8.796;2022-07-23T07:16:07;25.40;68.70
3069;DHT22;1545;51.728;8.796;2022-07-23T07:18:33;25.90;66.80
3069;DHT22;1545;51.728;8.796;2022-07-23T07:20:58;25.20;66.60
3069;DHT22;1545;51.728;8.796;2022-07-23T07:23:24;23.80;71.60
3069;DHT22;1545;51.728;8.796;2022-07-23T07:25:49;23.30;73.70
3069;DHT22;1545;51.728;8.796;2022-07-23T07:28:15;23.90;72.60
3069;DHT22;1545;51.728;8.796;2022-07-23T07:30:41;23.90;70.90
3069;DHT22;1545;51.728;8.796;2022-07-23T07:33:06;23.40;73.40
3069;DHT22;1545;51.728;8.796;2022-07-23T07:35:32;23.80;71.10
3069;DHT22;1545;51.728;8.796;2022-07-23T07:37:58;24.30;70.80
3069;DHT22;1545;51.728;8.796;2022-07-23T07:40:24;25.20;66.80
3069;DHT22;1545;51.728;8.796;2022-07-23T07:42:52;25.40;66.80
3069;DHT22;1545;51.728;8.796;2022-07-23T07:45:20;24.40;70.20
3069;DHT22;1545;51.728;8.796;2022-07-23T07:47:46;23.90;71.20
3069;DHT22;1545;51.728;8.796;2022-07-23T07:50:12;22.80;73.50
3069;DHT22;1545;51.728;8.796;2022-07-23T07:52:37;23.00;74.10
3069;DHT22;1545;51.728;8.796;2022-07-23T07:55:03;24.00;69.40
3069;DHT22;1545;51.728;8.796;2022-07-23T07:57:29;23.90;70.30
3069;DHT22;1545;51.728;8.796;2022-07-23T07:59:55;23.30;71.50
3069;DHT22;1545;51.728;8.796;2022-07-23T08:02:20;22.90;72.90
3069;DHT22;1545;51.728;8.796;2022-07-23T08:04:46;22.30;73.90
3069;DHT22;1545;51.728;8.796;2022-07-23T08:07:12;22.40;74.90
3069;DHT22;1545;51.728;8.796;2022-07-23T08:09:38;23.60;71.40
3069;DHT22;1545;51.728;8.796;2022-07-23T08:12:03;24.70;68.30
3069;DHT22;1545;51.728;8.796;2022-07-23T08:14:29;25.50;66.10
3069;DHT22;1545;51.728;8.796;2022-07-23T08:16:54;24.80;66.40
3069;DHT22;1545;51.728;8.796;2022-07-23T08:19:20;25.20;65.40
3069;DHT22;1545;51.728;8.796;2022-07-23T08:21:45;25.90;63.20
3069;DHT22;1545;51.728;8.796;2022-07-23T08:24:11;25.80;62.00
3069;DHT22;1545;51.728;8.796;2022-07-23T08:26:36;24.50;65.90
3069;DHT22;1545;51.728;8.796;2022-07-23T08:29:02;23.30;71.60
3069;DHT22;1545;51.728;8.796;2022-07-23T08:31:27;22.50;72.60
3069;DHT22;1545;51.728;8.796;2022-07-23T08:33:53;21.90;74.90
3069;DHT22;1545;51.728;8.796;2022-07-23T08:36:19;21.30;76.40
3069;DHT22;1545;51.728;8.796;2022-07-23T08:38:44;21.30;76.30
3069;DHT22;1545;51.728;8.796;2022-07-23T08:41:10;22.80;72.00
3069;DHT22;1545;51.728;8.796;2022-07-23T08:43:36;23.50;69.80
3069;DHT22;1545;51.728;8.796;2022-07-23T08:46:02;22.60;71.00
3069;DHT22;1545;51.728;8.796;2022-07-23T08:48:33;21.80;73.70
3069;DHT22;1545;51.728;8.796;2022-07-23T08:51:00;21.40;75.60
3069;DHT22;1545;51.728;8.796;2022-07-23T08:53:28;22.30;73.20
3069;DHT22;1545;51.728;8.796;2022-07-23T08:55:57;23.70;68.10
3069;DHT22;1545;51.728;8.796;2022-07-23T08:58:24;25.10;63.70
3069;DHT22;1545;51.728;8.796;2022-07-23T09:00:50;26.20;62.40
3069;DHT22;1545;51.728;8.796;2022-07-23T09:03:21;27.90;58.20
3069;DHT22;1545;51.728;8.796;2022-07-23T09:05:47;28.60;56.00
3069;DHT22;1545;51.728;8.796;2022-07-23T09:08:19;27.20;57.70
3069;DHT22;1545;51.728;8.796;2022-07-23T09:10:50;25.90;59.60
3069;DHT22;1545;51.728;8.796;2022-07-23T09:15:50;26.50;60.50
3069;DHT22;1545;51.728;8.796;2022-07-23T09:18:16;25.90;61.30
3069;DHT22;1545;51.728;8.796;2022-07-23T09:20:46;24.40;65.70
3069;DHT22;1545;51.728;8.796;2022-07-23T09:23:11;23.00;70.90
3069;DHT22;1545;51.728;8.796;2022-07-23T09:25:37;22.20;73.00
3069;DHT22;1545;51.728;8.796;2022-07-23T09:28:02;22.00;73.40
3069;DHT22;1545;51.728;8.796;2022-07-23T09:30:31;22.20;71.40
3069;DHT22;1545;51.728;8.796;2022-07-23T09:33:12;23.30;68.20
3069;DHT22;1545;51.728;8.796;2022-07-23T09:35:44;24.00;66.50
3069;DHT22;1545;51.728;8.796;2022-07-23T09:38:10;25.00;63.80
3069;DHT22;1545;51.728;8.796;2022-07-23T09:40:35;26.40;60.70
3069;DHT22;1545;51.728;8.796;2022-07-23T09:43:01;27.20;57.10
3069;DHT22;1545;51.728;8.796;2022-07-23T09:45:26;27.90;56.10
3069;DHT22;1545;51.728;8.796;2022-07-23T09:48:10;28.70;54.30
3069;DHT22;1545;51.728;8.796;2022-07-23T09:50:36;28.40;53.80
3069;DHT22;1545;51.728;8.796;2022-07-23T09:53:02;27.80;55.70
3069;DHT22;1545;51.728;8.796;2022-07-23T09:55:32;27.90;56.10
3069;DHT22;1545;51.728;8.796;2022-07-23T09:58:07;27.70;56.10
3069;DHT22;1545;51.728;8.796;2022-07-23T10:00:39;26.80;58.70
3069;DHT22;1545;51.728;8.796;2022-07-23T10:03:06;25.70;60.30
3069;DHT22;1545;51.728;8.796;2022-07-23T10:05:33;26.00;60.30
3069;DHT22;1545;51.728;8.796;2022-07-23T10:08:01;26.30;59.70
3069;DHT22;1545;51.728;8.796;2022-07-23T10:10:27;26.00;59.30
3069;DHT22;1545;51.728;8.796;2022-07-23T10:12:55;25.10;61.50
3069;DHT22;1545;51.728;8.796;2022-07-23T10:15:36;24.60;63.80
3069;DHT22;1545;51.728;8.796;2022-07-23T10:18:01;24.50;64.70
3069;DHT22;1545;51.728;8.796;2022-07-23T10:20:27;24.60;63.50
3069;DHT22;1545;51.728;8.796;2022-07-23T10:23:22;24.40;64.20
3069;DHT22;1545;51.728;8.796;2022-07-23T10:26:12;24.10;64.40
3069;DHT22;1545;51.728;8.796;2022-07-23T10:28:43;24.00;66.00
3069;DHT22;1545;51.728;8.796;2022-07-23T10:34:15;23.50;67.50
3069;DHT22;1545;51.728;8.796;2022-07-23T10:36:51;23.40;67.60
3069;DHT22;1545;51.728;8.796;2022-07-23T10:39:47;23.60;68.20
3069;DHT22;1545;51.728;8.796;2022-07-23T10:42:17;23.90;65.30
3069;DHT22;1545;51.728;8.796;2022-07-23T10:44:47;23.70;65.90
3069;DHT22;1545;51.728;8.796;2022-07-23T10:47:21;23.70;66.10
3069;DHT22;1545;51.728;8.796;2022-07-23T10:53:09;23.80;66.10
3069;DHT22;1545;51.728;8.796;2022-07-23T10:58:05;23.90;66.10
3069;DHT22;1545;51.728;8.796;2022-07-23T11:00:31;23.70;66.90
3069;DHT22;1545;51.728;8.796;2022-07-23T11:02:59;22.80;69.60
3069;DHT22;1545;51.728;8.796;2022-07-23T11:24:08;22.90;69.40
3069;DHT22;1545;51.728;8.796;2022-07-23T11:32:51;23.90;66.10
3069;DHT22;1545;51.728;8.796;2022-07-23T11:35:24;24.00;66.60
3069;DHT22;1545;51.728;8.796;2022-07-23T11:37:51;23.70;67.10
3069;DHT22;1545;51.728;8.796;2022-07-23T11:40:24;23.70;67.20
3069;DHT22;1545;51.728;8.796;2022-07-23T11:43:07;23.30;67.80
3069;DHT22;1545;51.728;8.796;2022-07-23T11:45:38;23.30;67.30
3069;DHT22;1545;51.728;8.796;2022-07-23T11:48:06;22.90;67.70
3069;DHT22;1545;51.728;8.796;2022-07-23T11:50:33;23.00;69.50
3069;DHT22;1545;51.728;8.796;2022-07-23T11:52:59;23.30;68.20
3069;DHT22;1545;51.728;8.796;2022-07-23T11:55:24;23.70;67.40
3069;DHT22;1545;51.728;8.796;2022-07-23T11:57:52;23.70;67.70
3069;DHT22;1545;51.728;8.796;2022-07-23T12:00:24;23.80;66.90
3069;DHT22;1545;51.728;8.796;2022-07-23T12:02:52;23.80;66.40
3069;DHT22;1545;51.728;8.796;2022-07-23T12:05:21;23.50;67.00
3069;DHT22;1545;51.728;8.796;2022-07-23T12:07:49;23.40;67.30
3069;DHT22;1545;51.728;8.796;2022-07-23T12:10:24;23.10;68.50
3069;DHT22;1545;51.728;8.796;2022-07-23T12:12:56;23.00;68.70
3069;DHT22;1545;51.728;8.796;2022-07-23T12:15:45;22.80;68.40
3069;DHT22;1545;51.728;8.796;2022-07-23T12:18:12;23.30;68.60
3069;DHT22;1545;51.728;8.796;2022-07-23T12:20:42;23.50;66.80
3069;DHT22;1545;51.728;8.796;2022-07-23T12:23:11;23.50;65.80
3069;DHT22;1545;51.728;8.796;2022-07-23T12:25:43;23.20;67.20
3069;DHT22;1545;51.728;8.796;2022-07-23T12:30:48;23.80;65.60
3069;DHT22;1545;51.728;8.796;2022-07-23T12:33:35;23.90;64.50
3069;DHT22;1545;51.728;8.796;2022-07-23T12:36:03;23.70;64.60
3069;DHT22;1545;51.728;8.796;2022-07-23T12:38:40;23.50;65.80
3069;DHT22;1545;51.728;8.796;2022-07-23T12:41:06;23.60;66.20
3069;DHT22;1545;51.728;8.796;2022-07-23T12:43:44;23.60;64.90
3069;DHT22;1545;51.728;8.796;2022-07-23T12:46:19;23.70;65.90
3069;DHT22;1545;51.728;8.796;2022-07-23T12:51:20;23.40;65.40
3069;DHT22;1545;51.728;8.796;2022-07-23T12:53:49;23.50;65.30
3069;DHT22;1545;51.728;8.796;2022-07-23T12:56:17;23.70;65.70
3069;DHT22;1545;51.728;8.796;2022-07-23T12:58:55;23.80;66.20
3069;DHT22;1545;51.728;8.796;2022-07-23T13:04:13;24.00;63.10
3069;DHT22;1545;51.728;8.796;2022-07-23T13:06:51;24.00;63.30
3069;DHT22;1545;51.728;8.796;2022-07-23T13:09:19;23.90;64.40
3069;DHT22;1545;51.728;8.796;2022-07-23T13:11:47;23.90;65.10
3069;DHT22;1545;51.728;8.796;2022-07-23T13:14:14;24.00;65.20
3069;DHT22;1545;51.728;8.796;2022-07-23T13:16:40;24.00;64.30
3069;DHT22;1545;51.728;8.796;2022-07-23T13:19:06;24.00;65.30
3069;DHT22;1545;51.728;8.796;2022-07-23T13:21:32;23.60;63.90
3069;DHT22;1545;51.728;8.796;2022-07-23T13:23:58;23.40;65.00
3069;DHT22;1545;51.728;8.796;2022-07-23T13:26:25;23.20;65.80
3069;DHT22;1545;51.728;8.796;2022-07-23T13:28:50;23.10;66.50
3069;DHT22;1545;51.728;8.796;2022-07-23T13:31:16;23.10;67.10
3069;DHT22;1545;51.728;8.796;2022-07-23T13:33:42;23.00;67.00
3069;DHT22;1545;51.728;8.796;2022-07-23T13:36:08;23.10;67.10
3069;DHT22;1545;51.728;8.796;2022-07-23T13:38:33;23.50;65.80
3069;DHT22;1545;51.728;8.796;2022-07-23T13:40:59;23.60;63.20
3069;DHT22;1545;51.728;8.796;2022-07-23T13:43:25;23.40;64.80
3069;DHT22;1545;51.728;8.796;2022-07-23T13:45:51;23.40;65.80
3069;DHT22;1545;51.728;8.796;2022-07-23T13:48:18;23.30;65.50
3069;DHT22;1545;51.728;8.796;2022-07-23T13:50:44;23.30;66.60
3069;DHT22;1545;51.728;8.796;2022-07-23T13:53:15;23.40;64.30
3069;DHT22;1545;51.728;8.796;2022-07-23T13:55:41;23.40;64.50
3069;DHT22;1545;51.728;8.796;2022-07-23T13:58:08;23.30;64.70
3069;DHT22;1545;51.728;8.796;2022-07-23T14:00:38;23.30;65.20
3069;DHT22;1545;51.728;8.796;2022-07-23T14:03:03;23.40;64.70
3069;DHT22;1545;51.728;8.796;2022-07-23T14:05:29;23.60;65.60
3069;DHT22;1545;51.728;8.796;2022-07-23T14:07:55;23.80;65.70
3069;DHT22;1545;51.728;8.796;2022-07-23T14:10:22;24.00;64.50
3069;DHT22;1545;51.728;8.796;2022-07-23T14:12:49;24.20;62.70
3069;DHT22;1545;51.728;8.796;2022-07-23T14:15:16;24.10;63.00
3069;DHT22;1545;51.728;8.796;2022-07-23T14:17:43;24.00;63.90
3069;DHT22;1545;51.728;8.796;2022-07-23T14:20:10;23.90;63.60
3069;DHT22;1545;51.728;8.796;2022-07-23T14:22:36;24.00;63.70
3069;DHT22;1545;51.728;8.796;2022-07-23T14:25:03;24.10;63.90
3069;DHT22;1545;51.728;8.796;2022-07-23T14:27:29;24.20;62.90
3069;DHT22;1545;51.728;8.796;2022-07-23T14:29:55;24.20;62.40
3069;DHT22;1545;51.728;8.796;2022-07-23T14:32:21;24.50;62.80
3069;DHT22;1545;51.728;8.796;2022-07-23T14:34:47;24.50;62.30
3069;DHT22;1545;51.728;8.796;2022-07-23T14:37:12;24.60;62.10
3069;DHT22;1545;51.728;8.796;2022-07-23T14:39:39;24.20;62.40
3069;DHT22;1545;51.728;8.796;2022-07-23T14:42:06;24.10;63.30
3069;DHT22;1545;51.728;8.796;2022-07-23T14:44:32;24.20;62.90
3069;DHT22;1545;51.728;8.796;2022-07-23T14:46:58;24.30;62.90
3069;DHT22;1545;51.728;8.796;2022-07-23T14:49:25;24.40;63.00
3069;DHT22;1545;51.728;8.796;2022-07-23T14:51:50;24.80;62.00
3069;DHT22;1545;51.728;8.796;2022-07-23T14:54:16;25.00;60.60
3069;DHT22;1545;51.728;8.796;2022-07-23T14:56:42;25.10;60.40
3069;DHT22;1545;51.728;8.796;2022-07-23T14:59:08;25.20;60.80
3069;DHT22;1545;51.728;8.796;2022-07-23T15:01:34;24.90;60.40
3069;DHT22;1545;51.728;8.796;2022-07-23T15:04:00;24.70;60.80
3069;DHT22;1545;51.728;8.796;2022-07-23T15:06:26;24.60;61.30
3069;DHT22;1545;51.728;8.796;2022-07-23T15:08:51;24.70;61.60
3069;DHT22;1545;51.728;8.796;2022-07-23T15:11:17;24.90;59.70
3069;DHT22;1545;51.728;8.796;2022-07-23T15:13:42;25.00;60.30
3069;DHT22;1545;51.728;8.796;2022-07-23T15:16:08;25.20;59.90
3069;DHT22;1545;51.728;8.796;2022-07-23T15:18:34;25.00;59.10
3069;DHT22;1545;51.728;8.796;2022-07-23T15:21:00;25.10;59.70
3069;DHT22;1545;51.728;8.796;2022-07-23T15:23:26;25.10;59.10
3069;DHT22;1545;51.728;8.796;2022-07-23T15:25:54;25.10;59.30
3069;DHT22;1545;51.728;8.796;2022-07-23T15:28:20;24.80;59.30
3069;DHT22;1545;51.728;8.796;2022-07-23T15:30:46;24.60;60.10
3069;DHT22;1545;51.728;8.796;2022-07-23T15:33:11;24.50;61.00
3069;DHT22;1545;51.728;8.796;2022-07-23T15:35:37;24.70;61.20
3069;DHT22;1545;51.728;8.796;2022-07-23T15:38:03;24.70;60.00
3069;DHT22;1545;51.728;8.796;2022-07-23T15:40:28;24.50;60.50
3069;DHT22;1545;51.728;8.796;2022-07-23T15:42:54;24.50;60.80
3069;DHT22;1545;51.728;8.796;2022-07-23T15:45:20;24.60;60.90
3069;DHT22;1545;51.728;8.796;2022-07-23T15:47:47;24.70;59.90
3069;DHT22;1545;51.728;8.796;2022-07-23T15:50:13;24.50;59.40
3069;DHT22;1545;51.728;8.796;2022-07-23T15:52:39;24.40;60.00
3069;DHT22;1545;51.728;8.796;2022-07-23T15:55:05;24.30;59.70
3069;DHT22;1545;51.728;8.796;2022-07-23T15:57:31;24.20;61.10
3069;DHT22;1545;51.728;8.796;2022-07-23T15:59:56;24.40;61.00
3069;DHT22;1545;51.728;8.796;2022-07-23T16:02:22;24.50;60.30
3069;DHT22;1545;51.728;8.796;2022-07-23T16:04:49;24.40;60.70
3069;DHT22;1545;51.728;8.796;2022-07-23T16:07:16;24.60;60.80
3069;DHT22;1545;51.728;8.796;2022-07-23T16:09:42;24.50;59.40
3069;DHT22;1545;51.728;8.796;2022-07-23T16:12:08;24.50;59.90
3069;DHT22;1545;51.728;8.796;2022-07-23T16:14:34;24.30;60.50
3069;DHT22;1545;51.728;8.796;2022-07-23T16:17:00;24.30;60.90
3069;DHT22;1545;51.728;8.796;2022-07-23T16:19:25;24.50;60.80
3069;DHT22;1545;51.728;8.796;2022-07-23T16:21:51;24.70;60.40
3069;DHT22;1545;51.728;8.796;2022-07-23T16:24:16;24.60;60.40
3069;DHT22;1545;51.728;8.796;2022-07-23T16:26:42;24.60;60.40
3069;DHT22;1545;51.728;8.796;2022-07-23T16:29:08;24.80;60.10
3069;DHT22;1545;51.728;8.796;2022-07-23T16:31:33;24.80;60.20
3069;DHT22;1545;51.728;8.796;2022-07-23T16:33:59;24.60;60.00
3069;DHT22;1545;51.728;8.796;2022-07-23T16:36:24;24.40;61.40
3069;DHT22;1545;51.728;8.796;2022-07-23T16:38:50;24.70;59.80
3069;DHT22;1545;51.728;8.796;2022-07-23T16:41:16;24.90;60.20
3069;DHT22;1545;51.728;8.796;2022-07-23T16:43:41;24.90;59.10